Time;durP1;ratioP1;P1;durP2;ratioP2;P2;SDS_P1;SDS_P2;PMS_P1;PMS_P2;Temp;Humidity;BMP_temperature;BMP_pressure;BME280_temperature;BME280_humidity;BME280_pressure;Samples;Min_cycle;Max_cycle;Signal;HPM_P1;HPM_P2
2022/01/30 00:00:56;;;;;;;53.67;29.70;;;;;;;2.55;58.80;99751.81;5083561;28;20091;-96
2022/01/30 00:03:22;;;;;;;59.40;29.08;;;;;;;2.58;59.71;99741.38;5084788;28;20037;-96
2022/01/30 00:05:51;;;;;;;61.60;29.95;;;;;;;2.62;59.90;99737.06;5083687;28;20063;-96
2022/01/30 00:08:19;;;;;;;63.70;31.13;;;;;;;2.71;59.26;99752.13;5081896;28;20052;-94
2022/01/30 00:10:50;;;;;;;63.25;31.80;;;;;;;2.76;58.95;99763.63;5083532;28;20045;-95
2022/01/30 00:13:21;;;;;;;61.33;30.52;;;;;;;2.85;58.29;99783.06;5081618;28;20120;-95
2022/01/30 00:15:51;;;;;;;66.53;30.83;;;;;;;2.72;57.17;99748.66;5082529;28;20041;-96
2022/01/30 00:24:26;;;;;;;55.33;28.08;;;;;;;2.78;58.25;99741.78;5174909;27;20132;-95
2022/01/30 00:26:52;;;;;;;50.58;26.98;;;;;;;2.94;58.16;99758.72;5142003;28;20107;-94
2022/01/30 00:29:18;;;;;;;57.47;28.08;;;;;;;2.83;56.62;99739.25;5138316;28;20134;-95
2022/01/30 00:31:44;;;;;;;53.88;26.35;;;;;;;2.92;57.76;99734.16;5143334;28;20078;-95
2022/01/30 00:34:10;;;;;;;49.10;25.48;;;;;;;2.94;56.67;99745.59;5144051;28;20039;-94
2022/01/30 00:36:36;;;;;;;57.95;28.90;;;;;;;2.86;55.86;99720.91;5140978;27;20442;-93
2022/01/30 00:39:03;;;;;;;49.95;27.13;;;;;;;2.94;54.88;99737.72;5142850;28;20031;-94
2022/01/30 00:41:31;;;;;;;52.55;26.40;;;;;;;2.94;55.43;99753.47;5142983;28;20082;-94
2022/01/30 00:43:57;;;;;;;52.22;26.92;;;;;;;3.09;55.33;99766.91;5139599;28;20039;-94
2022/01/30 00:46:26;;;;;;;55.95;28.10;;;;;;;3.09;54.68;99760.75;5143084;28;20051;-93
2022/01/30 00:48:52;;;;;;;53.13;27.17;;;;;;;2.91;54.98;99735.03;5143108;28;20051;-95
2022/01/30 00:51:18;;;;;;;50.25;25.58;;;;;;;2.96;56.41;99730.75;5142465;27;20047;-94
2022/01/30 00:53:44;;;;;;;50.95;24.77;;;;;;;3.27;54.57;99755.88;5143819;27;20039;-93
2022/01/30 00:56:10;;;;;;;49.33;25.70;;;;;;;3.19;53.90;99728.53;5143871;28;20038;-94
2022/01/30 00:58:38;;;;;;;47.95;27.10;;;;;;;3.05;54.82;99717.75;5143792;28;20046;-95
2022/01/30 01:01:04;;;;;;;51.58;25.25;;;;;;;3.01;54.10;99721.19;5144725;27;20099;-95
2022/01/30 01:03:30;;;;;;;52.25;26.08;;;;;;;2.96;54.31;99721.97;5144871;28;20040;-96
2022/01/30 01:05:59;;;;;;;49.22;25.25;;;;;;;2.88;55.26;99716.56;5145374;27;20500;-95
2022/01/30 01:08:31;;;;;;;45.85;25.10;;;;;;;2.86;55.49;99698.16;5145372;27;20052;-95
2022/01/30 01:11:14;;;;;;;50.45;23.77;;;;;;;2.90;56.21;99690.34;5144276;27;20043;-96
2022/01/30 01:14:00;;;;;;;45.53;23.70;;;;;;;2.94;56.27;99681.66;5144942;27;20126;-95
2022/01/30 01:25:29;;;;;;;41.05;22.40;;;;;;;2.91;56.03;99637.84;5122302;27;20129;-96
2022/01/30 01:27:55;;;;;;;46.42;23.92;;;;;;;3.12;56.43;99663.56;5124295;28;20044;-96
2022/01/30 01:30:21;;;;;;;43.00;23.17;;;;;;;2.99;57.64;99653.72;5125459;28;20070;-95
2022/01/30 01:32:47;;;;;;;53.42;23.02;;;;;;;2.75;58.27;99627.91;5125877;28;20054;-95
2022/01/30 01:35:13;;;;;;;49.22;24.60;;;;;;;2.67;57.33;99615.53;5125109;28;20081;-96
2022/01/30 01:37:42;;;;;;;49.33;24.20;;;;;;;2.94;55.18;99634.38;5125988;28;20056;-96
2022/01/30 01:40:10;;;;;;;49.17;24.77;;;;;;;2.73;55.95;99613.84;5125333;28;20111;-94
2022/01/30 01:42:41;;;;;;;51.00;24.75;;;;;;;2.64;56.20;99607.56;5123357;28;20336;-94
2022/01/30 01:45:09;;;;;;;51.33;23.20;;;;;;;2.65;57.15;99621.59;5122608;28;20277;-95
2022/01/30 01:47:35;;;;;;;48.75;24.25;;;;;;;2.53;57.36;99603.88;5123960;28;20044;-94
2022/01/30 01:50:04;;;;;;;44.55;22.83;;;;;;;2.49;58.38;99616.91;5124069;28;20103;-95
2022/01/30 01:52:31;;;;;;;48.28;22.63;;;;;;;2.50;57.31;99616.06;5125073;28;20401;-95
2022/01/30 01:55:04;;;;;;;43.85;23.25;;;;;;;2.40;57.08;99612.38;5125891;28;20043;-95
2022/01/30 01:57:30;;;;;;;47.03;23.38;;;;;;;2.34;57.22;99607.00;5125746;28;20043;-96
2022/01/30 02:00:01;;;;;;;42.28;21.08;;;;;;;2.53;56.86;99624.88;5124894;28;20056;-94
2022/01/30 02:02:28;;;;;;;52.00;23.30;;;;;;;2.47;57.64;99607.28;5123733;28;20093;-95
2022/01/30 02:04:58;;;;;;;40.65;21.58;;;;;;;2.57;56.68;99624.06;5124599;28;20046;-96
2022/01/30 02:10:21;;;;;;;38.80;21.75;;;;;;;2.60;56.43;99618.00;5124394;27;20396;-95
2022/01/30 02:12:51;;;;;;;38.00;20.63;;;;;;;2.53;55.93;99603.00;5124963;28;20048;-95
2022/01/30 02:37:35;;;;;;;35.20;18.42;;;;;;;2.80;60.69;99571.09;5125473;27;20330;-95
2022/01/30 02:40:04;;;;;;;39.88;18.63;;;;;;;2.77;58.74;99573.66;5101396;28;20532;-95
2022/01/30 02:42:33;;;;;;;40.78;17.77;;;;;;;2.95;57.24;99607.22;5103880;28;20044;-94
2022/01/30 02:45:03;;;;;;;35.20;17.10;;;;;;;2.98;58.63;99605.53;5104946;28;20101;-96
2022/01/30 02:50:32;;;;;;;39.75;18.65;;;;;;;2.90;58.84;99572.13;5101777;28;20126;-94
2022/01/30 02:53:00;;;;;;;38.03;18.20;;;;;;;2.90;58.03;99566.88;5102518;28;20090;-95
2022/01/30 02:55:27;;;;;;;39.67;18.55;;;;;;;2.91;56.23;99579.13;5103570;28;20040;-95
2022/01/30 02:57:53;;;;;;;32.95;17.17;;;;;;;3.01;56.81;99579.31;5103322;28;20044;-96
2022/01/30 03:00:19;;;;;;;40.92;19.10;;;;;;;3.13;55.96;99567.25;5102741;28;20072;-95
2022/01/30 03:02:45;;;;;;;33.13;16.92;;;;;;;3.26;55.91;99554.31;5102213;28;20043;-92
2022/01/30 03:05:13;;;;;;;36.97;17.60;;;;;;;3.17;57.71;99555.91;5102911;28;20051;-95
2022/01/30 03:07:41;;;;;;;35.45;18.23;;;;;;;3.23;58.12;99558.63;5103284;28;20114;-95
2022/01/30 03:10:08;;;;;;;35.85;18.02;;;;;;;3.13;58.65;99539.22;5103678;28;20070;-95
2022/01/30 03:12:34;;;;;;;46.10;21.30;;;;;;;2.98;59.50;99539.84;5103758;28;20044;-93
2022/01/30 03:15:00;;;;;;;40.95;19.67;;;;;;;3.04;59.06;99529.44;5103409;28;20052;-94
2022/01/30 03:17:27;;;;;;;46.20;22.08;;;;;;;2.96;60.18;99536.31;5102089;28;20059;-94
2022/01/30 03:19:54;;;;;;;41.28;20.48;;;;;;;3.01;60.43;99528.50;5103404;28;20040;-95
2022/01/30 03:22:21;;;;;;;40.35;18.92;;;;;;;2.85;61.19;99511.63;5103758;28;20035;-95
2022/01/30 03:24:48;;;;;;;35.58;18.08;;;;;;;2.79;61.68;99509.78;5103880;28;20052;-94
2022/01/30 03:27:14;;;;;;;37.83;19.13;;;;;;;2.85;61.41;99515.13;5102655;28;20104;-94
2022/01/30 03:30:03;;;;;;;34.72;17.63;;;;;;;2.77;61.66;99508.00;5103740;28;20063;-95
2022/01/30 03:32:35;;;;;;;35.42;17.88;;;;;;;2.95;62.62;99531.94;5103751;28;20063;-94
2022/01/30 03:35:01;;;;;;;37.60;18.80;;;;;;;2.79;62.91;99517.66;5104351;28;20294;-94
2022/01/30 03:37:29;;;;;;;37.42;18.45;;;;;;;2.80;61.57;99515.94;5103408;28;20048;-93
2022/01/30 03:39:57;;;;;;;33.85;17.48;;;;;;;2.85;62.29;99496.75;5103689;28;20491;-96
2022/01/30 03:42:23;;;;;;;33.13;17.75;;;;;;;2.96;62.58;99506.53;5101450;28;20044;-95
2022/01/30 03:44:49;;;;;;;38.05;18.45;;;;;;;2.96;62.55;99488.16;5102778;28;20406;-95
2022/01/30 03:47:33;;;;;;;40.15;18.40;;;;;;;3.03;61.61;99519.78;5105193;28;20075;-94
2022/01/30 03:49:59;;;;;;;30.42;15.77;;;;;;;3.26;61.48;99550.81;5102873;28;20048;-95
2022/01/30 03:52:28;;;;;;;33.05;17.00;;;;;;;3.13;58.70;99501.56;5102316;28;20040;-94
2022/01/30 03:54:58;;;;;;;32.25;16.92;;;;;;;3.19;59.40;99505.16;5103215;28;20091;-95
2022/01/30 03:57:25;;;;;;;32.70;16.67;;;;;;;3.13;59.79;99498.91;5102037;28;20059;-94
2022/01/30 03:59:53;;;;;;;36.50;16.65;;;;;;;3.23;59.30;99495.53;5098212;28;20478;-95
2022/01/30 04:02:25;;;;;;;33.13;16.98;;;;;;;3.36;60.79;99517.63;5089547;28;20044;-95
2022/01/30 04:04:51;;;;;;;38.92;19.85;;;;;;;3.23;62.37;99485.03;5088700;28;20623;-96
2022/01/30 04:07:18;;;;;;;45.15;20.83;;;;;;;3.25;62.96;99502.59;5089460;28;20040;-95
2022/01/30 04:09:45;;;;;;;43.28;22.23;;;;;;;3.18;62.81;99492.84;5090102;28;20555;-95
2022/01/30 04:12:14;;;;;;;49.55;23.10;;;;;;;3.13;62.40;99502.44;5089310;28;20501;-95
2022/01/30 04:14:40;;;;;;;41.22;22.85;;;;;;;3.02;63.08;99490.88;5088311;28;20113;-95
2022/01/30 04:17:09;;;;;;;46.63;22.77;;;;;;;3.03;63.19;99493.50;5090823;28;20138;-95
2022/01/30 04:19:35;;;;;;;42.63;22.10;;;;;;;2.94;64.45;99492.50;5089917;28;20415;-94
2022/01/30 04:22:02;;;;;;;48.15;24.50;;;;;;;2.89;63.94;99495.06;5089458;28;20495;-95
2022/01/30 04:24:31;;;;;;;51.13;23.90;;;;;;;2.87;64.18;99489.78;5089332;28;20079;-94
2022/01/30 04:35:42;;;;;;;59.00;27.00;;;;;;;2.87;67.14;99471.38;5140784;22;20057;-95
2022/01/30 04:56:51;;;;;;;63.95;30.80;;;;;;;2.81;68.99;99471.28;5102826;27;20563;-94
2022/01/30 05:02:12;;;;;;;66.38;31.77;;;;;;;2.66;69.39;99471.06;5147254;27;20383;-95
2022/01/30 05:07:28;;;;;;;59.17;30.45;;;;;;;2.74;69.40;99500.94;5147454;27;20395;-95
2022/01/30 05:09:55;;;;;;;70.05;30.98;;;;;;;2.68;69.25;99475.47;5147834;27;20082;-96
2022/01/30 05:12:22;;;;;;;65.35;30.88;;;;;;;2.62;69.68;99469.22;5147494;28;20071;-94
2022/01/30 05:14:49;;;;;;;63.55;29.08;;;;;;;2.72;69.89;99470.28;5148228;28;20111;-95
2022/01/30 05:17:16;;;;;;;60.85;30.13;;;;;;;2.72;70.06;99460.66;5147861;28;20048;-94
2022/01/30 05:19:42;;;;;;;67.55;30.98;;;;;;;2.74;70.69;99451.06;5147757;28;20151;-94
2022/01/30 05:22:10;;;;;;;62.00;30.80;;;;;;;2.75;70.81;99465.06;5147160;28;20044;-96
2022/01/30 05:24:39;;;;;;;60.10;31.15;;;;;;;2.81;70.42;99471.28;5146392;28;20047;-96
2022/01/30 05:27:06;;;;;;;70.80;33.33;;;;;;;2.80;69.38;99468.66;5146839;28;20074;-96
2022/01/30 05:29:36;;;;;;;69.22;32.53;;;;;;;2.93;68.91;99481.13;5145334;28;20043;-96
2022/01/30 05:32:02;;;;;;;65.88;32.55;;;;;;;2.77;67.77;99455.47;5147698;28;20071;-95
2022/01/30 05:34:30;;;;;;;74.20;33.50;;;;;;;2.88;69.02;99501.16;5147486;27;20043;-95
2022/01/30 05:36:57;;;;;;;70.68;32.95;;;;;;;2.53;70.22;99454.22;5146855;28;20063;-95
2022/01/30 05:39:24;;;;;;;75.07;34.28;;;;;;;2.56;69.96;99469.13;5147234;28;20049;-95
2022/01/30 05:41:59;;;;;;;88.38;33.72;;;;;;;2.51;70.77;99476.06;5147010;28;20047;-95
2022/01/30 05:44:40;;;;;;;76.65;33.78;;;;;;;2.53;70.82;99459.47;5147503;28;20054;-96
2022/01/30 05:47:15;;;;;;;70.47;35.22;;;;;;;2.45;71.30;99469.84;5146533;28;20036;-96
2022/01/30 05:49:43;;;;;;;72.60;34.20;;;;;;;2.51;71.80;99471.69;5146483;28;20035;-96
2022/01/30 05:52:10;;;;;;;72.20;33.67;;;;;;;2.55;71.64;99467.38;5147706;28;20047;-95
2022/01/30 05:54:39;;;;;;;72.65;35.25;;;;;;;2.55;71.69;99462.13;5146819;27;20039;-96
2022/01/30 05:57:07;;;;;;;61.65;33.30;;;;;;;2.55;71.71;99459.50;5146592;28;20385;-96
2022/01/30 05:59:34;;;;;;;75.47;35.75;;;;;;;2.52;71.60;99456.84;5146317;28;20050;-96
2022/01/30 06:02:02;;;;;;;70.70;35.47;;;;;;;2.47;71.41;99448.84;5145635;28;20043;-95
2022/01/30 06:04:28;;;;;;;87.38;37.90;;;;;;;2.35;71.12;99436.44;5146857;28;20043;-96
2022/01/30 06:06:56;;;;;;;75.95;36.55;;;;;;;2.32;70.91;99438.13;5146620;28;20517;-96
2022/01/30 06:09:22;;;;;;;73.40;35.22;;;;;;;2.24;71.22;99438.00;5146194;28;20122;-95
2022/01/30 06:11:51;;;;;;;74.53;35.60;;;;;;;2.31;72.21;99452.97;5146117;28;20047;-95
2022/01/30 06:14:20;;;;;;;76.03;36.77;;;;;;;2.32;71.88;99438.13;5144857;28;20050;-95
2022/01/30 06:16:47;;;;;;;81.40;36.25;;;;;;;2.30;71.37;99438.09;5143034;27;20084;-95
2022/01/30 06:19:14;;;;;;;76.45;36.35;;;;;;;2.20;69.79;99437.06;5132414;28;20570;-95
2022/01/30 06:21:40;;;;;;;67.90;35.53;;;;;;;2.18;69.67;99430.88;5133028;28;20111;-96
2022/01/30 06:24:08;;;;;;;78.63;39.40;;;;;;;2.13;70.54;99429.94;5132468;28;20051;-94
2022/01/30 06:26:37;;;;;;;81.03;36.80;;;;;;;2.16;70.24;99426.47;5131450;28;20093;-94
2022/01/30 06:29:03;;;;;;;86.75;36.67;;;;;;;2.38;70.17;99449.59;5132709;28;20046;-94
2022/01/30 06:31:31;;;;;;;84.05;38.33;;;;;;;2.50;70.26;99448.06;5131341;28;20039;-93
2022/01/30 06:33:58;;;;;;;86.22;41.20;;;;;;;2.68;70.35;99471.97;5131161;28;20086;-94
2022/01/30 06:36:26;;;;;;;90.93;41.55;;;;;;;2.47;71.51;99422.59;5131529;28;20091;-94
2022/01/30 06:38:53;;;;;;;79.93;38.70;;;;;;;2.46;72.70;99421.72;5131001;28;20055;-96
2022/01/30 06:41:22;;;;;;;85.07;40.35;;;;;;;2.54;73.51;99427.13;5131427;28;20043;-96
2022/01/30 06:43:48;;;;;;;76.70;37.95;;;;;;;2.56;74.22;99425.41;5110868;28;20046;-94
2022/01/30 06:46:21;;;;;;;83.38;37.25;;;;;;;2.63;75.20;99435.13;5111826;28;20390;-94
2022/01/30 06:48:51;;;;;;;78.40;38.95;;;;;;;2.62;74.79;99411.47;5111707;28;20108;-94
2022/01/30 06:51:17;;;;;;;80.60;38.90;;;;;;;2.92;75.13;99458.31;5111185;28;20048;-96
2022/01/30 06:53:43;;;;;;;85.60;40.42;;;;;;;2.78;74.49;99415.22;5111827;28;20045;-96
2022/01/30 06:56:10;;;;;;;86.95;38.53;;;;;;;2.83;72.16;99421.41;5112208;28;20105;-96
2022/01/30 06:58:36;;;;;;;82.13;39.33;;;;;;;2.79;70.58;99412.59;5111655;28;20048;-95
2022/01/30 07:01:02;;;;;;;83.97;40.45;;;;;;;2.75;69.88;99412.53;5111645;28;20066;-95
2022/01/30 07:03:28;;;;;;;93.97;41.15;;;;;;;3.13;71.72;99463.00;5110489;28;20066;-96
2022/01/30 07:05:56;;;;;;;95.85;43.25;;;;;;;2.88;71.45;99401.34;5110013;28;20052;-95
2022/01/30 07:08:22;;;;;;;90.88;42.78;;;;;;;3.06;71.92;99446.28;5110915;28;20072;-95
2022/01/30 07:10:48;;;;;;;90.05;43.70;;;;;;;2.94;71.30;99432.94;5111788;28;20052;-95
2022/01/30 07:13:16;;;;;;;104.28;45.28;;;;;;;3.05;70.88;99431.34;5111174;28;20044;-96
2022/01/30 07:15:42;;;;;;;96.95;45.58;;;;;;;3.06;71.33;99408.59;5111194;28;20101;-96
2022/01/30 07:18:09;;;;;;;94.90;43.88;;;;;;;3.13;70.82;99420.09;5109498;28;20040;-95
2022/01/30 07:20:35;;;;;;;91.40;44.55;;;;;;;3.14;70.88;99422.72;5110021;28;20123;-95
2022/01/30 07:23:04;;;;;;;88.55;40.40;;;;;;;3.21;70.87;99418.41;5110701;28;20036;-96
2022/01/30 07:25:33;;;;;;;77.32;39.42;;;;;;;3.28;70.70;99425.53;5110306;28;20072;-96
2022/01/30 07:27:59;;;;;;;85.63;40.55;;;;;;;3.26;70.63;99428.13;5109932;28;20051;-95
2022/01/30 07:30:31;;;;;;;82.63;38.22;;;;;;;3.56;70.83;99468.81;5109594;28;20045;-95
2022/01/30 07:32:59;;;;;;;82.57;39.22;;;;;;;3.34;71.29;99429.97;5111036;28;20045;-95
2022/01/30 07:35:27;;;;;;;87.78;40.25;;;;;;;3.43;71.04;99425.72;5111173;28;20049;-96
2022/01/30 07:37:53;;;;;;;95.18;43.40;;;;;;;3.36;70.99;99418.63;5111156;28;20043;-95
2022/01/30 07:40:22;;;;;;;98.15;42.55;;;;;;;3.67;71.23;99464.56;5110352;28;20044;-95
2022/01/30 07:42:48;;;;;;;96.13;45.38;;;;;;;3.57;71.28;99411.84;5109727;28;20074;-96
2022/01/30 07:45:14;;;;;;;89.45;44.03;;;;;;;3.64;71.13;99414.59;5109053;28;20098;-95
2022/01/30 07:47:40;;;;;;;101.78;44.50;;;;;;;3.77;70.84;99415.56;5109923;28;20048;-95
2022/01/30 07:50:09;;;;;;;109.03;48.53;;;;;;;3.81;69.72;99406.84;5110778;28;20138;-96
2022/01/30 07:52:35;;;;;;;115.60;46.97;;;;;;;3.75;69.11;99405.91;5110437;28;20048;-96
2022/01/30 07:55:02;;;;;;;94.32;46.47;;;;;;;3.86;69.04;99406.88;5110175;28;20431;-96
2022/01/30 07:57:29;;;;;;;92.32;45.53;;;;;;;4.25;69.20;99450.25;5109481;28;20040;-96
2022/01/30 07:59:55;;;;;;;117.30;47.50;;;;;;;4.04;68.44;99398.31;5109546;28;20040;-96
2022/01/30 08:02:22;;;;;;;96.90;48.00;;;;;;;4.09;68.29;99399.22;5109845;28;20064;-96
2022/01/30 08:04:48;;;;;;;93.88;46.42;;;;;;;4.16;68.28;99401.03;5109296;28;20378;-96
2022/01/30 08:07:14;;;;;;;111.10;50.78;;;;;;;4.17;67.49;99388.78;5110358;28;20095;-96
2022/01/30 08:09:40;;;;;;;115.20;52.50;;;;;;;4.19;67.91;99393.19;5110037;28;20047;-94
2022/01/30 08:12:10;;;;;;;108.68;51.65;;;;;;;4.29;68.13;99396.75;5109617;28;20059;-95
2022/01/30 08:14:38;;;;;;;115.90;51.28;;;;;;;4.40;68.21;99391.56;5109494;28;20112;-95
2022/01/30 08:17:05;;;;;;;98.60;46.75;;;;;;;4.58;67.54;99411.94;5108042;28;20052;-95
2022/01/30 08:19:31;;;;;;;103.22;48.20;;;;;;;4.65;66.68;99411.09;5108907;28;20101;-96
2022/01/30 08:22:00;;;;;;;105.40;48.65;;;;;;;4.55;66.42;99398.72;5110242;28;20040;-95
2022/01/30 08:24:26;;;;;;;102.25;48.60;;;;;;;4.62;66.85;99398.78;5109295;28;20040;-96
2022/01/30 08:26:52;;;;;;;105.05;49.95;;;;;;;4.77;66.47;99428.72;5106356;28;20043;-96
2022/01/30 08:29:18;;;;;;;120.65;50.70;;;;;;;4.73;66.85;99410.28;5106032;28;20040;-94
2022/01/30 08:31:46;;;;;;;108.85;49.60;;;;;;;4.98;67.23;99430.63;5105344;28;20040;-96
2022/01/30 08:34:12;;;;;;;105.53;49.33;;;;;;;5.02;67.47;99414.84;5106698;28;20089;-95
2022/01/30 08:36:38;;;;;;;118.63;54.10;;;;;;;5.11;65.99;99401.69;5105912;28;20040;-95
2022/01/30 08:39:07;;;;;;;122.03;53.28;;;;;;;5.22;65.56;99404.38;5105002;28;20458;-96
2022/01/30 08:41:35;;;;;;;116.78;53.55;;;;;;;5.39;65.12;99422.91;5105232;28;20071;-95
2022/01/30 08:44:00;;;;;;;106.18;50.17;;;;;;;5.39;65.02;99411.50;5107289;28;20107;-96
2022/01/30 08:46:27;;;;;;;108.03;50.97;;;;;;;5.39;65.14;99386.00;5105025;28;20078;-95
2022/01/30 08:48:56;;;;;;;118.32;52.90;;;;;;;5.42;65.29;99399.22;5105020;28;20128;-96
2022/01/30 08:51:23;;;;;;;115.18;51.28;;;;;;;5.36;64.72;99407.09;5107101;28;20043;-95
2022/01/30 08:53:49;;;;;;;101.32;50.35;;;;;;;5.52;64.93;99393.06;5107314;28;20054;-96
2022/01/30 08:56:15;;;;;;;110.13;51.00;;;;;;;5.73;65.24;99394.03;5107893;28;20069;-96
2022/01/30 08:58:42;;;;;;;130.98;57.70;;;;;;;5.89;64.39;99397.56;5106825;28;20533;-96
2022/01/30 09:01:12;;;;;;;121.70;55.50;;;;;;;6.03;63.46;99395.88;5104895;28;20048;-96
2022/01/30 09:03:40;;;;;;;111.82;50.63;;;;;;;6.26;62.80;99410.84;5105573;28;20044;-95
2022/01/30 09:06:08;;;;;;;111.83;49.20;;;;;;;6.23;62.10;99389.72;5105812;28;20048;-96
2022/01/30 09:08:35;;;;;;;110.22;52.55;;;;;;;6.22;61.80;99403.81;5106292;28;20036;-95
2022/01/30 09:11:01;;;;;;;124.60;55.58;;;;;;;6.05;61.22;99396.75;5106005;28;20486;-96
2022/01/30 09:13:32;;;;;;;110.90;50.20;;;;;;;6.12;62.17;99400.28;5105958;28;20040;-96
2022/01/30 09:15:59;;;;;;;113.38;53.38;;;;;;;6.20;62.03;99401.16;5103184;28;20047;-94
2022/01/30 09:18:26;;;;;;;122.30;54.28;;;;;;;6.28;61.61;99415.25;5101541;28;20047;-96
2022/01/30 09:20:56;;;;;;;122.97;55.25;;;;;;;6.38;61.19;99430.22;5102677;28;20044;-95
2022/01/30 09:23:24;;;;;;;120.63;55.67;;;;;;;6.51;60.62;99436.41;5100564;28;20044;-94
2022/01/30 09:25:50;;;;;;;126.05;54.42;;;;;;;6.36;61.53;99402.94;5102928;28;20055;-95
2022/01/30 09:28:16;;;;;;;115.18;52.40;;;;;;;6.44;61.38;99410.88;5103202;28;20070;-96
2022/01/30 09:30:45;;;;;;;111.10;52.75;;;;;;;6.48;61.15;99407.31;5104188;28;20047;-96
2022/01/30 09:33:11;;;;;;;114.90;54.13;;;;;;;6.53;61.28;99405.56;5102694;28;20469;-95
2022/01/30 09:35:38;;;;;;;113.55;51.08;;;;;;;6.67;60.60;99431.97;5104763;28;20059;-96
2022/01/30 09:38:04;;;;;;;117.85;54.15;;;;;;;6.64;60.57;99397.63;5103051;28;20077;-94
2022/01/30 09:40:33;;;;;;;113.60;52.38;;;;;;;6.81;60.71;99407.28;5103488;28;20074;-96
2022/01/30 09:42:59;;;;;;;117.03;52.67;;;;;;;6.88;60.70;99396.72;5108496;28;20040;-94
2022/01/30 09:45:27;;;;;;;109.60;52.35;;;;;;;6.97;60.76;99406.38;5107998;28;20093;-96
2022/01/30 09:48:03;;;;;;;122.68;52.80;;;;;;;7.22;60.91;99438.06;5107715;28;20055;-96
2022/01/30 09:50:42;;;;;;;121.25;52.28;;;;;;;7.09;60.26;99405.47;5108952;28;20055;-96
2022/01/30 09:53:09;;;;;;;116.90;52.93;;;;;;;7.23;60.04;99402.78;5108506;28;20059;-96
2022/01/30 09:55:37;;;;;;;121.38;54.33;;;;;;;7.48;59.68;99428.28;5107818;28;20044;-96
2022/01/30 09:58:04;;;;;;;110.25;50.30;;;;;;;7.41;59.63;99394.78;5106855;28;20087;-96
2022/01/30 10:00:36;;;;;;;118.13;55.63;;;;;;;7.57;60.03;99383.25;5110509;28;20055;-96
2022/01/30 10:03:10;;;;;;;117.45;54.67;;;;;;;7.59;60.27;99372.66;5111703;28;20048;-96
2022/01/30 10:06:12;;;;;;;117.53;57.03;;;;;;;7.77;59.73;99385.78;5110497;28;20100;-96
2022/01/30 10:08:44;;;;;;;125.68;56.50;;;;;;;7.90;59.63;99394.53;5108557;28;20040;-94
2022/01/30 10:14:21;;;;;;;120.43;58.00;;;;;;;7.97;59.51;99408.59;5122569;27;20387;-96
2022/01/30 10:16:49;;;;;;;128.07;59.15;;;;;;;7.89;59.67;99379.50;5122404;28;20048;-96
2022/01/30 10:19:20;;;;;;;120.93;58.53;;;;;;;7.84;60.09;99373.38;5121301;28;20103;-95
2022/01/30 10:25:24;;;;;;;112.72;53.65;;;;;;;8.06;59.75;99379.41;5092462;28;20046;-95
2022/01/30 10:28:47;;;;;;;119.07;54.42;;;;;;;8.25;60.27;99371.31;5121531;28;20093;-94
2022/01/30 10:31:53;;;;;;;118.72;53.35;;;;;;;8.52;59.58;99392.34;5110445;28;20054;-96
2022/01/30 10:34:22;;;;;;;122.60;55.53;;;;;;;8.38;59.76;99360.59;5120531;28;20040;-96
2022/01/30 10:37:26;;;;;;;126.45;55.80;;;;;;;8.43;59.61;99353.50;5092422;28;20044;-95
2022/01/30 10:40:09;;;;;;;125.68;56.83;;;;;;;8.42;59.77;99343.81;5121458;28;20048;-95
2022/01/30 10:42:41;;;;;;;120.30;55.70;;;;;;;8.56;59.86;99345.44;5122542;28;20043;-95
2022/01/30 10:45:13;;;;;;;92.93;46.55;;;;;;;8.69;59.81;99357.69;5120435;28;20113;-96
2022/01/30 10:47:49;;;;;;;86.43;45.60;;;;;;;8.89;59.45;99377.81;5120587;28;20044;-95
2022/01/30 10:50:30;;;;;;;93.95;45.00;;;;;;;8.62;58.87;99330.38;5123030;28;20050;-96
2022/01/30 10:53:02;;;;;;;88.90;43.90;;;;;;;8.71;59.42;99315.25;5121317;28;20055;-94
2022/01/30 10:55:49;;;;;;;87.80;45.28;;;;;;;9.00;59.42;99342.34;5121464;28;20043;-95
2022/01/30 10:58:17;;;;;;;94.00;46.78;;;;;;;9.36;57.84;99340.13;5121523;28;20047;-95
2022/01/30 11:00:52;;;;;;;103.55;48.50;;;;;;;9.24;57.23;99316.41;5122764;28;20044;-94
2022/01/30 11:03:53;;;;;;;120.68;51.53;;;;;;;9.26;57.54;99317.28;5120307;28;20389;-96
2022/01/30 11:06:49;;;;;;;106.50;49.65;;;;;;;9.21;58.68;99325.25;5101065;28;20456;-95
2022/01/30 11:09:28;;;;;;;78.05;35.90;;;;;;;8.95;60.92;99324.72;5117548;28;20055;-94
2022/01/30 11:12:02;;;;;;;115.00;48.15;;;;;;;8.79;60.92;99308.97;5120008;28;20126;-94
2022/01/30 11:18:44;;;;;;;98.03;41.25;;;;;;;9.14;60.91;99342.16;5118953;27;20414;-95
2022/01/30 11:21:12;;;;;;;85.85;38.67;;;;;;;9.15;60.79;99324.47;5100570;28;20119;-94
2022/01/30 11:23:41;;;;;;;96.00;43.95;;;;;;;9.13;60.21;99310.34;5100508;28;20067;-95
2022/01/30 11:26:10;;;;;;;92.30;45.27;;;;;;;9.18;59.89;99319.13;5101645;28;20068;-96
2022/01/30 11:28:38;;;;;;;101.30;46.40;;;;;;;9.07;60.05;99299.84;5101792;28;20104;-96
2022/01/30 11:31:04;;;;;;;100.20;46.22;;;;;;;8.94;60.61;99277.88;5099745;28;20047;-95
2022/01/30 11:33:32;;;;;;;113.82;54.80;;;;;;;8.95;60.82;99291.09;5097568;28;20125;-95
2022/01/30 11:36:01;;;;;;;120.45;52.38;;;;;;;8.91;61.13;99277.91;5098716;28;20048;-95
2022/01/30 11:38:27;;;;;;;;;;;;;;;9.09;62.16;99306.88;5099077;28;20044;-95
2022/01/30 11:41:10;;;;;;;111.70;42.13;;;;;;;8.87;62.32;99265.56;5103022;28;19959;-94
2022/01/30 11:43:39;;;;;;;95.25;39.03;;;;;;;8.76;63.54;99274.56;5100614;28;20059;-95
2022/01/30 11:46:13;;;;;;;;;;;;;;;8.79;63.86;99295.72;5100665;28;20036;-95
2022/01/30 11:48:39;;;;;;;84.90;41.13;;;;;;;8.65;64.00;99281.72;5100036;28;19917;-96
2022/01/30 11:51:08;;;;;;;90.68;42.10;;;;;;;8.46;64.69;99249.25;5100645;28;20525;-96
2022/01/30 11:53:37;;;;;;;96.00;44.58;;;;;;;8.63;64.90;99254.34;5099848;28;20052;-95
2022/01/30 11:56:05;;;;;;;92.07;42.97;;;;;;;8.68;64.46;99236.63;5098693;28;20047;-94
2022/01/30 11:58:46;;;;;;;86.75;42.30;;;;;;;8.78;65.02;99235.63;5098206;28;20111;-94
2022/01/30 12:01:35;;;;;;;77.72;38.45;;;;;;;8.97;65.17;99246.00;5080597;28;20386;-95
2022/01/30 12:04:05;;;;;;;65.10;29.23;;;;;;;9.00;65.06;99224.72;5079009;28;20044;-94
2022/01/30 12:06:38;;;;;;;73.63;34.03;;;;;;;9.17;65.54;99220.09;5088282;28;20040;-96
2022/01/30 12:09:27;;;;;;;62.33;31.35;;;;;;;9.28;65.47;99211.06;5119002;28;20044;-94
2022/01/30 12:12:06;;;;;;;;;;;;;;;9.54;65.18;99240.78;5121721;28;20075;-95
2022/01/30 12:14:57;;;;;;;59.75;31.23;;;;;;;9.50;65.46;99220.50;5099518;28;19970;-95
2022/01/30 12:17:50;;;;;;;60.45;28.80;;;;;;;9.63;65.71;99229.16;5102360;28;20383;-94
2022/01/30 12:20:18;;;;;;;58.78;29.30;;;;;;;9.54;65.85;99211.59;5098459;28;20398;-95
2022/01/30 12:22:47;;;;;;;50.60;22.23;;;;;;;9.75;66.32;99209.47;5094672;28;20082;-93
2022/01/30 12:25:29;;;;;;;44.90;23.02;;;;;;;9.72;66.34;99194.47;5098635;28;20040;-95
2022/01/30 12:28:03;;;;;;;50.47;23.50;;;;;;;9.64;66.75;99194.56;5095923;28;20054;-95
2022/01/30 12:30:31;;;;;;;39.72;19.67;;;;;;;9.66;67.28;99214.00;5086190;28;20119;-94
2022/01/30 12:32:57;;;;;;;40.35;20.05;;;;;;;9.64;67.50;99207.84;5086284;28;20048;-94
2022/01/30 12:35:24;;;;;;;47.95;22.23;;;;;;;9.70;67.69;99188.31;5084007;28;20079;-94
2022/01/30 12:37:53;;;;;;;45.97;18.08;;;;;;;9.73;67.43;99179.41;5085564;28;20398;-93
2022/01/30 12:40:21;;;;;;;27.35;14.45;;;;;;;9.92;67.46;99202.09;5084049;28;20044;-93
2022/01/30 12:42:48;;;;;;;40.88;18.83;;;;;;;9.97;67.43;99184.28;5084387;28;20478;-96
2022/01/30 12:45:18;;;;;;;49.38;21.60;;;;;;;9.90;67.20;99164.03;5085288;28;20051;-94
2022/01/30 12:47:49;;;;;;;39.55;18.58;;;;;;;9.79;66.97;99158.91;5084521;28;20479;-94
2022/01/30 12:50:20;;;;;;;41.65;18.50;;;;;;;9.84;67.00;99151.72;5087298;28;20536;-96
2022/01/30 12:52:51;;;;;;;38.65;18.30;;;;;;;9.94;67.03;99146.28;5085582;28;20048;-93
2022/01/30 12:55:23;;;;;;;40.38;20.70;;;;;;;10.11;66.66;99136.19;5086614;28;20490;-94
2022/01/30 12:57:54;;;;;;;37.22;18.05;;;;;;;10.20;67.18;99156.41;5086416;28;20044;-96
2022/01/30 13:00:21;;;;;;;26.05;12.40;;;;;;;10.41;65.97;99149.81;5084546;28;20455;-94
2022/01/30 13:02:55;;;;;;;24.27;12.32;;;;;;;10.73;65.38;99154.44;5086762;28;20083;-94